Terminal Aerodrome Forecast
Issued by NWS Birmingham, AL

Home | Current Version | Previous Version | Text Only | Print | Product List | Glossary On
Versions: 1 2 3 4 5 6 7 8 9 10 11 12 13 14 15 16
000
FTUS44 KBMX 251140
TAFBHM
TAF
KBHM 251140Z 2512/2612 18012KT P6SM OVC025
      TEMPO 2512/2514 5SM RA OVC010
     FM251800 23015KT P6SM VCTS OVC035CB
     FM252300 25014KT P6SM SCT150
     FM260900 23008KT P6SM BKN050=

USA.gov is the U.S. government's official web portal to all federal, state and local government web resources and services.